Time;durP1;ratioP1;P1;durP2;ratioP2;P2;SDS_P1;SDS_P2;PMS_P1;PMS_P2;Temp;Humidity;BMP_temperature;BMP_pressure;BME280_temperature;BME280_humidity;BME280_pressure;Samples;Min_cycle;Max_cycle;Signal;HPM_P1;HPM_P2
2023/07/02 00:01:31;;;;;;;;;;;;;;;;;;5073066;28;19920;-78
2023/07/02 00:03:57;;;;;;;;;;;;;;;;;;5090713;28;19981;-78
2023/07/02 00:06:23;;;;;;;;;;;;;;;;;;5089824;28;20368;-75
2023/07/02 00:08:49;;;;;;;;;;;;;;;;;;5091281;28;20418;-78
2023/07/02 00:11:15;;;;;;;;;;;;;;;;;;5094629;28;19938;-77
2023/07/02 00:13:41;;;;;;;;;;;;;;;;;;5093968;28;19916;-76
2023/07/02 00:16:07;;;;;;;;;;;;;;;;;;5093518;28;19920;-79
2023/07/02 00:18:37;;;;;;;;;;;15.40;99.90;;;;;;5093812;28;19920;-76
2023/07/02 00:21:05;;;;;;;;;;;15.40;99.90;;;;;;5093531;28;19938;-79
2023/07/02 00:23:31;;;;;;;;;;;15.40;99.90;;;;;;5094217;28;19920;-79
2023/07/02 00:25:57;;;;;;;;;;;15.30;99.90;;;;;;5093821;28;19941;-77
2023/07/02 00:28:22;;;;;;;;;;;15.20;99.90;;;;;;5076927;28;19924;-77
2023/07/02 00:30:48;;;;;;;;;;;15.50;99.90;;;;;;5093972;28;19999;-77
2023/07/02 00:33:16;;;;;;;;;;;15.30;99.90;;;;;;5093013;28;19978;-78
2023/07/02 00:35:42;;;;;;;;;;;15.20;99.90;;;;;;5093703;28;19923;-76
2023/07/02 00:38:07;;;;;;;;;;;15.20;99.90;;;;;;5076330;28;19920;-80
2023/07/02 00:40:33;;;;;;;;;;;;;;;;;;5094653;28;20053;-78
2023/07/02 00:42:59;;;;;;;;;;;15.20;99.90;;;;;;5093474;28;19927;-76
2023/07/02 00:45:26;;;;;;;;;;;;;;;;;;5075759;28;20041;-76
2023/07/02 00:47:52;;;;;;;;;;;;;;;;;;5094074;28;19919;-79
2023/07/02 00:50:18;;;;;;;;;;;;;;;;;;5092648;28;19923;-76
2023/07/02 00:52:44;;;;;;;;;;;;;;;;;;5093346;28;19920;-79
2023/07/02 00:55:10;;;;;;;;;;;;;;;;;;5093004;28;19926;-78
2023/07/02 00:57:36;;;;;;;;;;;;;;;;;;5076224;28;20451;-78
2023/07/02 01:00:03;;;;;;;;;;;;;;;;;;5092993;28;19930;-77
2023/07/02 01:02:29;;;;;;;;;;;;;;;;;;5093744;28;19935;-79
2023/07/02 01:05:02;;;;;;;;;;;;;;;;;;5094240;28;19916;-80
2023/07/02 01:07:28;;;;;;;;;;;;;;;;;;5093034;28;20444;-77
2023/07/02 01:09:54;;;;;;;;;;;;;;;;;;5076472;28;19927;-78
2023/07/02 01:12:21;;;;;;;;;;;;;;;;;;5092459;28;19946;-79
2023/07/02 01:14:47;;;;;;;;;;;;;;;;;;5093318;28;19985;-78
2023/07/02 01:17:13;;;;;;;;;;;;;;;;;;5092424;28;19923;-76
2023/07/02 01:19:45;;;;;;;;;;;;;;;;;;5091958;28;19942;-78
2023/07/02 01:22:11;;;;;;;;;;;;;;;;;;5092117;28;20353;-77
2023/07/02 01:24:37;;;;;;;;;;;;;;;;;;5075969;28;20345;-78
2023/07/02 01:27:02;;;;;;;;;;;;;;;;;;5075993;28;19926;-76
2023/07/02 01:29:28;;;;;;;;;;;;;;;;;;5092477;28;20338;-75
2023/07/02 01:31:54;;;;;;;;;;;;;;;;;;5092483;28;20571;-77
2023/07/02 01:34:20;;;;;;;;;;;;;;;;;;5092298;28;20380;-77
2023/07/02 01:36:46;;;;;;;;;;;;;;;;;;5092418;28;20017;-76
2023/07/02 01:39:12;;;;;;;;;;;;;;;;;;5092475;28;19961;-75
2023/07/02 01:41:38;;;;;;;;;;;;;;;;;;5092209;28;20311;-75
2023/07/02 01:44:05;;;;;;;;;;;;;;;;;;5092444;28;19940;-76
2023/07/02 01:46:31;;;;;;;;;;;;;;;;;;5092486;28;20312;-74
2023/07/02 01:48:57;;;;;;;;;;;;;;;;;;5092301;28;19960;-76
2023/07/02 01:51:23;;;;;;;;;;;;;;;;;;5091449;28;20054;-76
2023/07/02 01:53:49;;;;;;;;;;;14.50;99.90;;;;;;5092096;28;20356;-78
2023/07/02 01:56:14;;;;;;;;;;;14.40;99.90;;;;;;5091775;28;19989;-75
2023/07/02 01:58:40;;;;;;;;;;;14.20;99.90;;;;;;5075725;28;19923;-79
2023/07/02 02:01:06;;;;;;;;;;;14.20;99.90;;;;;;5092249;28;20068;-78
2023/07/02 02:03:31;;;;;;;;;;;14.20;99.90;;;;;;5091834;28;19939;-78
2023/07/02 02:05:57;;;;;;;;;;;14.20;99.90;;;;;;5092550;28;19939;-76
2023/07/02 02:08:22;;;;;;;;;;;14.20;99.90;;;;;;5091723;28;19924;-77
2023/07/02 02:10:48;;;;;;;;;;;14.20;99.90;;;;;;5075062;28;19916;-79
2023/07/02 02:13:16;;;;;;;;;;;14.10;99.90;;;;;;5075131;28;19920;-75
2023/07/02 02:15:42;;;;;;;;;;;14.30;99.90;;;;;;5092311;28;19967;-75
2023/07/02 02:18:11;;;;;;;;;;;14.10;99.90;;;;;;5093104;28;19916;-77
2023/07/02 02:20:37;;;;;;;;;;;14.00;99.90;;;;;;5057963;28;20254;-78
2023/07/02 02:23:02;;;;;;;;;;;13.90;99.90;;;;;;5091930;28;20315;-78
2023/07/02 02:25:28;;;;;;;;;;;13.80;99.90;;;;;;5091596;28;19965;-76
2023/07/02 02:27:54;;;;;;;;;;;13.90;99.90;;;;;;5074713;28;20390;-81
2023/07/02 02:30:19;;;;;;;;;;;13.70;99.90;;;;;;5091051;28;19924;-78
2023/07/02 02:32:45;;;;;;;;;;;13.80;99.90;;;;;;5090952;28;19985;-75
2023/07/02 02:35:11;;;;;;;;;;;13.80;99.90;;;;;;5091683;28;19920;-77
2023/07/02 02:37:38;;;;;;;;;;;13.70;99.90;;;;;;5091037;28;20295;-76
2023/07/02 02:40:05;;;;;;;;;;;13.70;99.90;;;;;;5091824;28;20361;-77
2023/07/02 02:42:31;;;;;;;;;;;13.70;99.90;;;;;;5091170;28;19935;-76
2023/07/02 02:44:56;;;;;;;;;;;13.70;99.90;;;;;;5091362;28;20274;-79
2023/07/02 02:47:22;;;;;;;;;;;13.70;99.90;;;;;;5056735;28;19928;-79
2023/07/02 02:49:47;;;;;;;;;;;13.70;99.90;;;;;;5090939;28;20037;-78
2023/07/02 02:52:14;;;;;;;;;;;13.70;99.90;;;;;;5091226;28;19977;-76
2023/07/02 02:54:40;;;;;;;;;;;13.70;99.90;;;;;;5107784;28;19964;-78
2023/07/02 02:57:05;;;;;;;;;;;13.60;99.90;;;;;;5091229;28;20010;-78
2023/07/02 02:59:31;;;;;;;;;;;13.90;99.90;;;;;;5090317;28;19926;-73
2023/07/02 03:01:56;;;;;;;;;;;13.70;99.90;;;;;;5092443;28;19916;-76
2023/07/02 03:04:23;;;;;;;;;;;13.70;99.90;;;;;;5108125;28;19920;-76
2023/07/02 03:06:49;;;;;;;;;;;13.60;99.90;;;;;;5090734;28;19920;-76
2023/07/02 03:09:15;;;;;;;;;;;13.50;99.90;;;;;;5073373;28;20357;-75
2023/07/02 03:11:40;;;;;;;;;;;13.80;99.90;;;;;;5090141;28;19930;-78
2023/07/02 03:14:06;;;;;;;;;;;13.50;99.90;;;;;;5090774;28;19920;-78
2023/07/02 03:16:33;;;;;;;;;;;13.50;99.90;;;;;;5072566;28;20380;-80
2023/07/02 03:18:59;;;;;;;;;;;13.40;99.90;;;;;;5090619;28;19916;-76
2023/07/02 03:21:24;;;;;;;;;;;13.40;99.90;;;;;;5073631;28;20311;-78
2023/07/02 03:23:50;;;;;;;;;;;13.40;99.90;;;;;;5074338;28;20338;-78
2023/07/02 03:26:15;;;;;;;;;;;13.50;99.90;;;;;;5090987;28;19920;-75
2023/07/02 03:28:41;;;;;;;;;;;13.50;99.90;;;;;;5090032;28;20368;-79
2023/07/02 03:31:06;;;;;;;;;;;13.50;99.90;;;;;;5090551;28;19920;-78
2023/07/02 03:33:33;;;;;;;;;;;13.50;99.90;;;;;;5090752;28;19923;-79
2023/07/02 03:35:59;;;;;;;;;;;13.60;99.90;;;;;;5090268;28;19920;-75
2023/07/02 03:38:24;;;;;;;;;;;13.60;99.90;;;;;;5090428;28;19935;-79
2023/07/02 03:40:52;;;;;;;;;;;13.70;99.90;;;;;;5090567;28;19970;-78
2023/07/02 03:43:17;;;;;;;;;;;13.80;99.90;;;;;;5089556;28;19916;-76
2023/07/02 03:45:43;;;;;;;;;;;14.20;99.90;;;;;;5073606;28;19969;-75
2023/07/02 03:48:08;;;;;;;;;;;13.90;99.90;;;;;;5090045;28;19946;-79
2023/07/02 03:50:34;;;;;;;;;;;13.90;99.90;;;;;;5089685;28;19923;-80
2023/07/02 03:53:05;;;;;;;;;;;13.90;99.90;;;;;;5090515;28;19915;-79
2023/07/02 03:55:31;;;;;;;;;;;14.00;99.90;;;;;;5090022;28;19919;-80
2023/07/02 03:57:57;;;;;;;;;;;14.00;99.90;;;;;;5073716;28;19989;-75
2023/07/02 04:00:22;;;;;;;;;;;14.10;99.90;;;;;;5089390;28;20006;-75
2023/07/02 04:02:48;;;;;;;;;;;14.10;99.90;;;;;;5073123;28;19916;-75
2023/07/02 04:05:13;;;;;;;;;;;14.00;99.90;;;;;;5090748;28;19915;-77
2023/07/02 04:07:39;;;;;;;;;;;14.20;99.90;;;;;;5089529;28;20030;-78
2023/07/02 04:10:05;;;;;;;;;;;14.20;99.90;;;;;;5073172;28;20014;-77
2023/07/02 04:12:31;;;;;;;;;;;14.30;99.90;;;;;;5073117;28;19920;-77
2023/07/02 04:14:56;;;;;;;;;;;14.30;99.90;;;;;;5056452;28;20327;-76
2023/07/02 04:17:22;;;;;;;;;;;14.40;99.90;;;;;;5072972;28;19924;-76
2023/07/02 04:19:48;;;;;;;;;;;14.40;99.90;;;;;;5073178;28;19920;-78
2023/07/02 04:22:20;;;;;;;;;;;14.40;99.90;;;;;;5089796;28;20003;-76
2023/07/02 04:24:48;;;;;;;;;;;14.50;99.90;;;;;;5089802;28;20415;-76
2023/07/02 04:27:17;;;;;;;;;;;14.60;99.90;;;;;;5089721;28;19920;-79
2023/07/02 04:29:43;;;;;;;;;;;14.50;99.90;;;;;;5089773;28;20392;-78
2023/07/02 04:32:08;;;;;;;;;;;14.60;99.90;;;;;;5090142;28;19916;-76
2023/07/02 04:34:36;;;;;;;;;;;14.60;99.90;;;;;;5089550;28;20319;-77
2023/07/02 04:37:02;;;;;;;;;;;14.60;99.90;;;;;;5089928;28;19926;-76
2023/07/02 04:39:28;;;;;;;;;;;14.70;99.90;;;;;;5089355;28;20011;-75
2023/07/02 04:41:53;;;;;;;;;;;14.70;99.90;;;;;;5106565;28;20010;-74
2023/07/02 04:44:21;;;;;;;;;;;14.70;99.90;;;;;;5089944;28;20369;-79
2023/07/02 04:46:57;;;;;;;;;;;14.60;99.90;;;;;;5089493;28;19931;-78
2023/07/02 04:49:25;;;;;;;;;;;14.50;99.90;;;;;;5072545;28;19988;-75
2023/07/02 04:51:54;;;;;;;;;;;14.50;99.90;;;;;;5090575;28;19920;-77
2023/07/02 04:54:25;;;;;;;;;;;14.60;99.90;;;;;;5074424;28;19920;-79
2023/07/02 04:56:50;;;;;;;;;;;14.50;99.90;;;;;;5092977;28;19915;-80
2023/07/02 04:59:16;;;;;;;;;;;14.60;99.90;;;;;;5093590;28;20014;-80
2023/07/02 05:01:42;;;;;;;;;;;14.70;99.90;;;;;;5092875;28;19927;-76
2023/07/02 05:04:09;;;;;;;;;;;14.70;99.90;;;;;;5093444;28;19923;-76
2023/07/02 05:06:40;;;;;;;;;;;14.80;99.90;;;;;;5076792;28;19942;-81
2023/07/02 05:09:06;;;;;;;;;;;14.90;99.90;;;;;;5093281;28;20381;-78
2023/07/02 05:11:31;;;;;;;;;;;15.00;99.90;;;;;;5075523;28;19916;-76
2023/07/02 05:13:57;;;;;;;;;;;15.10;99.90;;;;;;5094393;28;19915;-76
2023/07/02 05:16:22;;;;;;;;;;;15.30;99.90;;;;;;5093210;28;19920;-80
2023/07/02 05:18:48;;;;;;;;;;;15.40;99.90;;;;;;5092739;28;20436;-75
2023/07/02 05:21:17;;;;;;;;;;;15.70;99.90;;;;;;5076227;28;19973;-78
2023/07/02 05:23:42;;;;;;;;;;;15.90;99.90;;;;;;5092645;28;19919;-74
2023/07/02 05:26:08;;;;;;;;;;;16.10;99.90;;;;;;5092910;28;20033;-76
2023/07/02 05:28:33;;;;;;;;;;;16.00;99.90;;;;;;5075736;28;19930;-80
2023/07/02 05:30:59;;;;;;;;;;;16.10;99.90;;;;;;5092945;28;20306;-76
2023/07/02 05:33:26;;;;;;;;;;;16.00;99.90;;;;;;5092961;28;20027;-77
2023/07/02 05:35:51;;;;;;;;;;;16.00;99.90;;;;;;5092889;28;19916;-79
2023/07/02 05:38:19;;;;;;;;;;;15.90;99.90;;;;;;5075738;28;20372;-77
2023/07/02 05:40:45;;;;;;;;;;;15.90;99.90;;;;;;5075647;28;19966;-79
2023/07/02 05:43:10;;;;;;;;;;;16.10;99.90;;;;;;5109752;28;20015;-77
2023/07/02 05:45:36;;;;;;;;;;;16.10;99.90;;;;;;5092791;28;20003;-79
2023/07/02 05:48:01;;;;;;;;;;;16.10;99.90;;;;;;5075697;28;19927;-79
2023/07/02 05:50:27;;;;;;;;;;;16.00;99.90;;;;;;5075247;28;20005;-75
2023/07/02 05:52:53;;;;;;;;;;;16.00;99.90;;;;;;5092240;28;19916;-79
2023/07/02 05:55:19;;;;;;;;;;;16.10;99.90;;;;;;5093022;28;19965;-78
2023/07/02 05:58:01;;;;;;;;;;;16.10;99.90;;;;;;5077493;28;19965;-76
2023/07/02 06:00:26;;;;;;;;;;;16.10;99.90;;;;;;5092187;28;19924;-75
2023/07/02 06:02:52;;;;;;;;;;;16.10;99.90;;;;;;5091836;28;19916;-78
2023/07/02 06:05:19;;;;;;;;;;;16.10;99.90;;;;;;5092349;28;19916;-78
2023/07/02 06:07:45;;;;;;;;;;;16.20;99.90;;;;;;5090507;28;19920;-77
2023/07/02 06:10:10;;;;;;;;;;;16.20;99.90;;;;;;5092630;28;19923;-80
2023/07/02 06:12:36;;;;;;;;;;;16.30;99.90;;;;;;5092057;28;19923;-80
2023/07/02 06:15:03;;;;;;;;;;;16.40;99.90;;;;;;5092625;28;19959;-76
2023/07/02 06:17:30;;;;;;;;;;;16.40;99.90;;;;;;5092396;28;19920;-77
2023/07/02 06:19:56;;;;;;;;;;;16.40;99.90;;;;;;5075459;28;19920;-78
2023/07/02 06:22:22;;;;;;;;;;;16.40;99.90;;;;;;5091916;28;19923;-80
2023/07/02 06:24:47;;;;;;;;;;;16.50;99.90;;;;;;5091542;28;19925;-79
2023/07/02 06:27:13;;;;;;;;;;;16.40;99.90;;;;;;5092281;28;19965;-77
2023/07/02 06:29:38;;;;;;;;;;;16.40;99.90;;;;;;5092168;28;20018;-76
2023/07/02 06:32:10;;;;;;;;;;;16.40;99.90;;;;;;5091812;28;20284;-78
2023/07/02 06:34:36;;;;;;;;;;;16.50;99.90;;;;;;5109428;27;19920;-77
2023/07/02 06:37:01;;;;;;;;;;;16.70;99.90;;;;;;5091864;28;20007;-79
2023/07/02 06:39:27;;;;;;;;;;;16.80;99.90;;;;;;5091953;28;19974;-81
2023/07/02 06:41:53;;;;;;;;;;;17.00;99.90;;;;;;5091627;28;20014;-79
2023/07/02 06:44:18;;;;;;;;;;;17.00;99.90;;;;;;5075034;28;19916;-76
2023/07/02 06:46:45;;;;;;;;;;;17.00;99.90;;;;;;5074591;28;19957;-76
2023/07/02 06:49:11;;;;;;;;;;;17.00;99.90;;;;;;5092103;28;19916;-79
2023/07/02 06:51:37;;;;;;;;;;;16.90;99.90;;;;;;5093324;28;19923;-76
2023/07/02 06:54:02;;;;;;;;;;;16.90;99.90;;;;;;5092507;28;19920;-79
2023/07/02 06:56:28;;;;;;;;;;;16.90;99.90;;;;;;5074668;28;20308;-78
2023/07/02 06:58:54;;;;;;;;;;;16.90;99.90;;;;;;5091461;28;19919;-79
2023/07/02 07:01:19;;;;;;;;;;;17.00;99.90;;;;;;5074031;28;19931;-75
2023/07/02 07:03:45;;;;;;;;;;;17.00;99.90;;;;;;5090694;28;20387;-77
2023/07/02 07:06:11;;;;;;;;;;;17.10;99.90;;;;;;5091620;28;19927;-76
2023/07/02 07:08:38;;;;;;;;;;;17.10;99.90;;;;;;5091236;28;19915;-78
2023/07/02 07:11:04;;;;;;;;;;;17.20;99.90;;;;;;5092981;28;19927;-80
2023/07/02 07:13:29;;;;;;;;;;;17.20;99.90;;;;;;5091733;28;19924;-76
2023/07/02 07:15:55;;;;;;;;;;;17.30;99.90;;;;;;5090675;28;19945;-75
2023/07/02 07:18:20;;;;;;;;;;;17.30;99.90;;;;;;5091566;28;19985;-81
2023/07/02 07:20:46;;;;;;;;;;;17.40;99.90;;;;;;5090765;28;20270;-78
2023/07/02 07:23:12;;;;;;;;;;;17.40;99.90;;;;;;5091076;28;20320;-76
2023/07/02 07:25:38;;;;;;;;;;;17.40;99.90;;;;;;5091149;28;19923;-77
2023/07/02 07:28:15;;;;;;;;;;;17.50;99.90;;;;;;5091389;28;19946;-76
2023/07/02 07:30:41;;;;;;;;;;;17.50;99.90;;;;;;5090417;28;20277;-79
2023/07/02 07:33:06;;;;;;;;;;;17.60;99.90;;;;;;5107952;28;19920;-77
2023/07/02 07:35:32;;;;;;;;;;;17.60;99.90;;;;;;5091023;28;19920;-80
2023/07/02 07:37:57;;;;;;;;;;;17.70;99.90;;;;;;5090557;28;20551;-77
2023/07/02 07:40:23;;;;;;;;;;;17.90;99.90;;;;;;5074018;28;19920;-76
2023/07/02 07:42:48;;;;;;;;;;;17.90;99.90;;;;;;5090376;28;19998;-79
2023/07/02 07:45:14;;;;;;;;;;;17.80;99.90;;;;;;5090836;28;19927;-78
2023/07/02 07:47:41;;;;;;;;;;;17.70;99.90;;;;;;5090639;28;19923;-76
2023/07/02 07:50:10;;;;;;;;;;;17.80;99.90;;;;;;5091035;28;19959;-77
2023/07/02 07:52:39;;;;;;;;;;;17.90;99.90;;;;;;5091649;28;19920;-78
2023/07/02 07:55:05;;;;;;;;;;;18.00;99.90;;;;;;5074568;28;19973;-78
2023/07/02 07:57:30;;;;;;;;;;;17.90;99.90;;;;;;5090897;28;19916;-77
2023/07/02 07:59:56;;;;;;;;;;;18.00;99.90;;;;;;5091064;28;19965;-82
2023/07/02 08:02:22;;;;;;;;;;;18.00;99.90;;;;;;5074073;28;20395;-79
2023/07/02 08:04:48;;;;;;;;;;;18.10;99.90;;;;;;5073605;28;19930;-80
2023/07/02 08:07:14;;;;;;;;;;;18.20;99.90;;;;;;5074422;28;19916;-79
2023/07/02 08:09:40;;;;;;;;;;;18.40;99.90;;;;;;5089696;28;19927;-77
2023/07/02 08:12:05;;;;;;;;;;;18.60;99.90;;;;;;5089808;28;20002;-76
2023/07/02 08:14:31;;;;;;;;;;;18.70;99.90;;;;;;5073741;28;19920;-82
2023/07/02 08:16:56;;;;;;;;;;;18.60;99.90;;;;;;5090588;28;19923;-80
2023/07/02 08:19:22;;;;;;;;;;;18.40;99.90;;;;;;5090455;28;20246;-80
2023/07/02 08:21:48;;;;;;;;;;;18.10;99.90;;;;;;5073079;28;19947;-78
2023/07/02 08:24:13;;;;;;;;;;;17.80;99.90;;;;;;5090716;28;19942;-81
2023/07/02 08:26:39;;;;;;;;;;;17.50;99.90;;;;;;5056867;28;19920;-77
2023/07/02 08:29:04;;;;;;;;;;;17.40;99.90;;;;;;5090505;28;19985;-82
2023/07/02 08:31:30;;;;;;;;;;;17.20;99.90;;;;;;5094575;28;19931;-77
2023/07/02 08:33:55;;;;;;;;;;;17.10;99.90;;;;;;5094523;28;19916;-76
2023/07/02 08:36:21;;;;;;;;;;;16.90;99.90;;;;;;5077345;28;19923;-76
2023/07/02 08:38:47;;;;;;;;;;;16.90;99.90;;;;;;5093831;28;19916;-79
2023/07/02 08:41:12;;;;;;;;;;;16.80;99.90;;;;;;5094606;28;20285;-78
2023/07/02 08:43:38;;;;;;;;;;;16.70;99.90;;;;;;5094345;28;19943;-78
2023/07/02 08:46:04;;;;;;;;;;;16.60;99.90;;;;;;5093630;28;19916;-77
2023/07/02 08:48:30;;;;;;;;;;;16.70;99.90;;;;;;5094133;28;19927;-78
2023/07/02 08:50:56;;;;;;;;;;;16.90;99.90;;;;;;5093453;28;20276;-78
2023/07/02 08:53:29;;;;;;;;;;;17.20;99.90;;;;;;5077106;28;19923;-76
2023/07/02 08:55:55;;;;;;;;;;;17.40;99.90;;;;;;5093986;28;19916;-79
2023/07/02 08:58:21;;;;;;;;;;;17.50;99.90;;;;;;5076908;28;19923;-79
2023/07/02 09:01:06;;;;;;;;;;;17.90;99.90;;;;;;5093417;28;19924;-79
2023/07/02 09:03:32;;;;;;;;;;;18.00;99.90;;;;;;5093934;28;20034;-80
2023/07/02 09:05:58;;;;;;;;;;;18.00;99.90;;;;;;5093675;28;20475;-82
2023/07/02 09:08:25;;;;;;;;;;;17.90;99.90;;;;;;5093916;28;20486;-78
2023/07/02 09:10:51;;;;;;;;;;;17.70;99.90;;;;;;5127889;27;19923;-81
2023/07/02 09:13:16;;;;;;;;;;;17.70;99.90;;;;;;5076811;28;19920;-78
2023/07/02 09:15:42;;;;;;;;;;;17.60;99.90;;;;;;5110805;28;19916;-80
2023/07/02 09:18:14;;;;;;;;;;;17.50;99.90;;;;;;5093683;28;19923;-79
2023/07/02 09:20:39;;;;;;;;;;;17.50;99.90;;;;;;5093561;28;20265;-77
2023/07/02 09:23:05;;;;;;;;;;;17.40;99.90;;;;;;5093177;28;19926;-80
2023/07/02 09:25:38;;;;;;;;;;;17.40;99.90;;;;;;5093294;28;19916;-78
2023/07/02 09:28:23;;;;;;;;;;;17.70;99.90;;;;;;5076227;28;19919;-83
2023/07/02 09:30:53;;;;;;;;;;;17.90;99.90;;;;;;5109426;28;19949;-77
2023/07/02 09:33:19;;;;;;;;;;;18.40;99.90;;;;;;5093394;28;19919;-78
2023/07/02 09:35:45;;;;;;;;;;;18.80;99.90;;;;;;5093753;28;19916;-78
2023/07/02 09:38:11;;;;;;;;;;;19.00;99.90;;;;;;5076135;28;19989;-78
2023/07/02 09:40:39;;;;;;;;;;;19.30;99.90;;;;;;5092867;28;20471;-80
2023/07/02 09:43:05;;;;;;;;;;;19.60;99.70;;;;;;5092107;28;20010;-82
2023/07/02 09:45:30;;;;;;;;;;;19.70;98.30;;;;;;5092919;28;20011;-81
2023/07/02 09:47:57;;;;;;;;;;;19.80;99.00;;;;;;5092464;28;19924;-79
2023/07/02 09:50:22;;;;;;;;;;;19.80;97.40;;;;;;5075913;28;19959;-80
2023/07/02 09:52:49;;;;;;;;;;;19.90;98.60;;;;;;5092707;28;19970;-80
2023/07/02 09:55:15;;;;;;;;;;;20.00;97.10;;;;;;5093003;28;20389;-78
2023/07/02 09:57:42;;;;;;;;;;;19.90;96.10;;;;;;5092858;28;20015;-79
2023/07/02 10:00:08;;;;;;;;;;;20.00;96.50;;;;;;5075706;28;19931;-79
2023/07/02 10:02:35;;;;;;;;;;;20.10;93.60;;;;;;5092572;28;19953;-82
2023/07/02 10:05:00;;;;;;;;;;;20.20;93.10;;;;;;5075907;28;19920;-82
2023/07/02 10:07:28;;;;;;;;;;;20.30;93.20;;;;;;5093173;28;19916;-76
2023/07/02 10:09:54;;;;;;;;;;;20.10;93.20;;;;;;5092365;28;19966;-76
2023/07/02 10:12:23;;;;;;;;;;;19.80;94.20;;;;;;5092608;28;20368;-78
2023/07/02 10:14:51;;;;;;;;;;;19.60;94.70;;;;;;5092803;28;20051;-80
2023/07/02 10:17:30;;;;;;;;;;;19.40;95.30;;;;;;5109473;28;19916;-77
2023/07/02 10:20:02;;;;;;;;;;;19.30;95.80;;;;;;5091984;28;19915;-78
2023/07/02 10:22:41;;;;;;;;;;;19.10;95.40;;;;;;5076223;28;19974;-80
2023/07/02 10:25:07;;;;;;;;;;;19.00;96.00;;;;;;5091871;28;20006;-81
2023/07/02 10:27:38;;;;;;;;;;;19.00;96.40;;;;;;5092679;28;20022;-80
2023/07/02 10:30:05;;;;;;;;;;;18.90;95.40;;;;;;5074848;28;19920;-77
2023/07/02 10:32:33;;;;;;;;;;;18.90;95.40;;;;;;5092453;28;19984;-76
2023/07/02 10:35:02;;;;;;;;;;;19.10;95.20;;;;;;5075466;28;19992;-76
2023/07/02 10:37:34;;;;;;;;;;;19.40;94.50;;;;;;5109034;28;19920;-78
2023/07/02 10:40:04;;;;;;;;;;;19.40;94.00;;;;;;5091671;28;20680;-78
2023/07/02 10:42:30;;;;;;;;;;;19.30;94.50;;;;;;5108741;28;20276;-79
2023/07/02 10:44:56;;;;;;;;;;;19.20;95.30;;;;;;5091654;28;19920;-80
2023/07/02 10:47:21;;;;;;;;;;;19.10;96.20;;;;;;5108810;28;20319;-78
2023/07/02 10:49:47;;;;;;;;;;;19.10;96.90;;;;;;5075041;28;19938;-79
2023/07/02 10:52:18;;;;;;;;;;;19.10;96.40;;;;;;5075491;28;19923;-81
2023/07/02 10:54:45;;;;;;;;;;;19.20;95.70;;;;;;5091877;28;19919;-76
2023/07/02 10:57:12;;;;;;;;;;;19.50;96.30;;;;;;5091793;28;19985;-80
2023/07/02 10:59:38;;;;;;;;;;;19.80;96.00;;;;;;5125564;27;19916;-79
2023/07/02 11:02:04;;;;;;;;;;;20.20;95.70;;;;;;5091044;28;19924;-77
2023/07/02 11:04:30;;;;;;;;;;;20.40;94.50;;;;;;5092819;28;19973;-77
2023/07/02 11:06:56;;;;;;;;;;;20.30;93.70;;;;;;5091255;28;19962;-80
2023/07/02 11:09:22;;;;;;;;;;;20.30;93.90;;;;;;5091786;28;19963;-78
2023/07/02 11:11:56;;;;;;;;;;;20.40;93.60;;;;;;5074570;28;19916;-80
2023/07/02 11:14:27;;;;;;;;;;;20.70;93.80;;;;;;5091692;28;20418;-80
2023/07/02 11:16:56;;;;;;;;;;;20.90;93.10;;;;;;5091524;28;19922;-80
2023/07/02 11:19:22;;;;;;;;;;;21.00;92.70;;;;;;5092276;28;19920;-78
2023/07/02 11:21:52;;;;;;;;;;;20.90;91.50;;;;;;5091427;28;20307;-77
2023/07/02 11:24:26;;;;;;;;;;;20.80;91.50;;;;;;5093183;28;20002;-77
2023/07/02 11:26:51;;;;;;;;;;;20.70;92.40;;;;;;5091556;28;19945;-82
2023/07/02 11:29:20;;;;;;;;;;;20.90;91.80;;;;;;5092047;28;19916;-76
2023/07/02 11:31:47;;;;;;;;;;;21.00;90.80;;;;;;5074642;28;19916;-77
2023/07/02 11:34:18;;;;;;;;;;;20.90;89.90;;;;;;5091097;28;19916;-79
2023/07/02 11:36:44;;;;;;;;;;;20.60;89.40;;;;;;5092018;28;19916;-77
2023/07/02 11:39:09;;;;;;;;;;;20.40;90.50;;;;;;5057285;28;19927;-79
2023/07/02 11:41:38;;;;;;;;;;;20.50;90.70;;;;;;5091139;28;19920;-79
2023/07/02 11:44:04;;;;;;;;;;;20.60;90.70;;;;;;5091448;28;20254;-80
2023/07/02 11:46:30;;;;;;;;;;;20.40;88.90;;;;;;5074559;28;19923;-82
2023/07/02 11:48:55;;;;;;;;;;;20.50;90.40;;;;;;5090940;28;19924;-81
2023/07/02 11:51:21;;;;;;;;;;;20.80;90.60;;;;;;5074399;28;19916;-78
2023/07/02 11:53:47;;;;;;;;;;;21.10;90.30;;;;;;5091819;28;20030;-78
2023/07/02 11:56:13;;;;;;;;;;;21.20;90.20;;;;;;5091072;28;20068;-80
2023/07/02 11:58:39;;;;;;;;;;;21.10;88.80;;;;;;5073804;28;19995;-79
2023/07/02 12:01:05;;;;;;;;;;;21.00;90.10;;;;;;5073358;28;19923;-79
2023/07/02 12:03:33;;;;;;;;;;;20.90;89.90;;;;;;5092074;28;20375;-83
2023/07/02 12:05:59;;;;;;;;;;;20.70;88.50;;;;;;5094017;28;20010;-78
2023/07/02 12:08:25;;;;;;;;;;;20.80;88.50;;;;;;5095190;28;19923;-77
2023/07/02 12:10:51;;;;;;;;;;;20.80;89.10;;;;;;5128573;27;20369;-83
2023/07/02 12:13:16;;;;;;;;;;;20.50;88.70;;;;;;5096075;28;19919;-81
2023/07/02 12:15:42;;;;;;;;;;;20.30;90.00;;;;;;5094910;28;19920;-77
2023/07/02 12:18:08;;;;;;;;;;;20.00;89.30;;;;;;5077592;28;19921;-80
2023/07/02 12:20:34;;;;;;;;;;;19.70;89.00;;;;;;5129206;27;19924;-80
2023/07/02 12:23:00;;;;;;;;;;;19.40;90.10;;;;;;5094892;28;19962;-79
2023/07/02 12:25:26;;;;;;;;;;;19.30;90.80;;;;;;5095853;28;19916;-78
2023/07/02 12:27:57;;;;;;;;;;;19.50;91.50;;;;;;5097033;28;20082;-78
2023/07/02 12:30:23;;;;;;;;;;;19.60;90.80;;;;;;5094226;28;19998;-80
2023/07/02 12:32:50;;;;;;;;;;;19.50;90.20;;;;;;5077628;28;19969;-78
2023/07/02 12:35:15;;;;;;;;;;;19.40;90.10;;;;;;5077697;28;19916;-78
2023/07/02 12:37:45;;;;;;;;;;;19.30;90.70;;;;;;5094605;28;19923;-79
2023/07/02 12:40:11;;;;;;;;;;;19.30;91.00;;;;;;5094513;28;19916;-77
2023/07/02 12:42:37;;;;;;;;;;;19.40;91.30;;;;;;5094361;28;19959;-79
2023/07/02 12:45:02;;;;;;;;;;;19.50;90.90;;;;;;5094377;28;19966;-78
2023/07/02 12:47:28;;;;;;;;;;;19.50;91.10;;;;;;5093770;28;19916;-78
2023/07/02 12:49:54;;;;;;;;;;;19.50;91.20;;;;;;5094168;28;19915;-78
2023/07/02 12:52:19;;;;;;;;;;;19.30;91.00;;;;;;5094322;28;20376;-81
2023/07/02 12:54:45;;;;;;;;;;;19.40;91.50;;;;;;5094209;28;19926;-80
2023/07/02 12:57:10;;;;;;;;;;;19.50;91.30;;;;;;5076278;28;19916;-75
2023/07/02 12:59:36;;;;;;;;;;;19.60;91.50;;;;;;5076911;28;19916;-78
2023/07/02 13:02:03;;;;;;;;;;;19.70;91.90;;;;;;5076653;28;19985;-78
2023/07/02 13:04:29;;;;;;;;;;;19.70;90.50;;;;;;5093885;28;20364;-76
2023/07/02 13:06:54;;;;;;;;;;;19.60;90.40;;;;;;5093583;28;19927;-76
2023/07/02 13:09:20;;;;;;;;;;;19.60;90.80;;;;;;5093456;28;20364;-77
2023/07/02 13:11:46;;;;;;;;;;;19.50;91.10;;;;;;5076787;28;19927;-76
2023/07/02 13:14:11;;;;;;;;;;;19.80;91.70;;;;;;5076602;28;20284;-80
2023/07/02 13:16:37;;;;;;;;;;;20.40;92.60;;;;;;5094703;28;19916;-78
2023/07/02 13:19:03;;;;;;;;;;;21.10;91.60;;;;;;5076978;28;20333;-81
2023/07/02 13:21:28;;;;;;;;;;;21.00;89.80;;;;;;5109908;28;19966;-80
2023/07/02 13:23:54;;;;;;;;;;;20.50;89.80;;;;;;5093485;28;19920;-77
2023/07/02 13:26:20;;;;;;;;;;;20.00;90.50;;;;;;5093912;28;19920;-77
2023/07/02 13:28:47;;;;;;;;;;;19.70;91.00;;;;;;5093368;28;19927;-79
2023/07/02 13:31:16;;;;;;;;;;;19.60;90.80;;;;;;5093132;28;20287;-81
2023/07/02 13:33:42;;;;;;;;;;;19.60;91.00;;;;;;5093378;28;20010;-80
2023/07/02 13:36:08;;;;;;;;;;;19.60;91.70;;;;;;5093260;28;19916;-78
2023/07/02 13:38:34;;;;;;;;;;;19.50;91.80;;;;;;5092980;28;19923;-79
2023/07/02 13:41:00;;;;;;;;;;;19.40;91.60;;;;;;5093549;28;20011;-79
2023/07/02 13:43:26;;;;;;;;;;;19.00;91.60;;;;;;5076283;28;19962;-80
2023/07/02 13:45:53;;;;;;;;;;;18.90;92.10;;;;;;5110030;28;19916;-78
2023/07/02 13:48:18;;;;;;;;;;;19.00;92.40;;;;;;5109201;28;19927;-75
2023/07/02 13:50:44;;;;;;;;;;;19.20;92.70;;;;;;5092469;28;19916;-77
2023/07/02 13:53:11;;;;;;;;;;;19.30;92.60;;;;;;5092923;28;19924;-77
2023/07/02 13:55:37;;;;;;;;;;;19.20;92.50;;;;;;5093289;28;20376;-77
2023/07/02 13:58:03;;;;;;;;;;;19.00;93.00;;;;;;5092778;28;19920;-79
2023/07/02 14:00:29;;;;;;;;;;;18.90;93.40;;;;;;5075473;28;20323;-78
2023/07/02 14:02:54;;;;;;;;;;;18.80;93.20;;;;;;5094292;28;19919;-79
2023/07/02 14:05:20;;;;;;;;;;;18.80;93.20;;;;;;5127171;27;19926;-80
2023/07/02 14:07:46;;;;;;;;;;;18.90;93.50;;;;;;5109995;28;20334;-78
2023/07/02 14:10:12;;;;;;;;;;;19.00;93.50;;;;;;5092363;28;20365;-79
2023/07/02 14:12:39;;;;;;;;;;;19.10;93.50;;;;;;5092848;28;20383;-81
2023/07/02 14:15:05;;;;;;;;;;;19.20;94.10;;;;;;5092553;28;19967;-77
2023/07/02 14:17:30;;;;;;;;;;;19.30;93.70;;;;;;5092061;28;19931;-78
2023/07/02 14:19:56;;;;;;;;;;;19.20;93.70;;;;;;5075429;28;19916;-77
2023/07/02 14:22:21;;;;;;;;;;;19.10;93.70;;;;;;5093693;28;20634;-81
2023/07/02 14:24:48;;;;;;;;;;;18.90;93.50;;;;;;5092453;28;19920;-80
2023/07/02 14:27:20;;;;;;;;;;;18.70;93.60;;;;;;5109704;28;19920;-77